sensor_id;sensor_type;location;lat;lon;timestamp;pressure;altitude;pressure_sealevel;temperature;humidity
7614;BME280;3848;42.016;23.098;2023-07-20T00:01:15;96741.22;;;26.90;82.82
7614;BME280;3848;42.016;23.098;2023-07-20T00:03:42;96700.13;;;26.71;83.40
7614;BME280;3848;42.016;23.098;2023-07-20T00:06:09;96739.22;;;26.83;84.14
7614;BME280;3848;42.016;23.098;2023-07-20T00:08:37;96740.53;;;26.88;84.00
7614;BME280;3848;42.016;23.098;2023-07-20T00:11:04;96724.88;;;26.88;82.55
7614;BME280;3848;42.016;23.098;2023-07-20T00:13:30;96718.69;;;26.89;81.06
7614;BME280;3848;42.016;23.098;2023-07-20T00:15:57;96718.00;;;26.87;83.14
7614;BME280;3848;42.016;23.098;2023-07-20T00:18:24;96707.72;;;26.74;82.79
7614;BME280;3848;42.016;23.098;2023-07-20T00:20:51;96711.03;;;26.77;85.60
7614;BME280;3848;42.016;23.098;2023-07-20T00:23:17;96721.13;;;26.70;85.61
7614;BME280;3848;42.016;23.098;2023-07-20T00:25:49;96727.16;;;26.70;86.19
7614;BME280;3848;42.016;23.098;2023-07-20T00:28:16;96718.97;;;26.64;87.07
7614;BME280;3848;42.016;23.098;2023-07-20T00:30:43;96732.00;;;26.64;85.73
7614;BME280;3848;42.016;23.098;2023-07-20T00:33:11;96727.16;;;26.59;82.95
7614;BME280;3848;42.016;23.098;2023-07-20T00:35:38;96704.91;;;26.44;83.80
7614;BME280;3848;42.016;23.098;2023-07-20T00:38:05;96716.53;;;26.51;83.83
7614;BME280;3848;42.016;23.098;2023-07-20T00:40:35;96718.44;;;26.49;82.91
7614;BME280;3848;42.016;23.098;2023-07-20T00:43:04;96715.13;;;26.47;83.58
7614;BME280;3848;42.016;23.098;2023-07-20T00:45:31;96707.44;;;26.46;82.86
7614;BME280;3848;42.016;23.098;2023-07-20T00:47:59;96696.75;;;26.37;85.22
7614;BME280;3848;42.016;23.098;2023-07-20T00:50:28;96701.25;;;26.35;87.21
7614;BME280;3848;42.016;23.098;2023-07-20T00:52:56;96692.13;;;26.30;88.80
7614;BME280;3848;42.016;23.098;2023-07-20T00:55:23;96684.78;;;26.01;92.06
7614;BME280;3848;42.016;23.098;2023-07-20T00:57:51;96697.56;;;25.93;95.12
7614;BME280;3848;42.016;23.098;2023-07-20T01:00:19;96692.34;;;25.82;96.62
7614;BME280;3848;42.016;23.098;2023-07-20T01:02:46;96696.50;;;25.73;98.36
7614;BME280;3848;42.016;23.098;2023-07-20T01:05:13;96702.22;;;25.54;99.72
7614;BME280;3848;42.016;23.098;2023-07-20T01:07:47;96693.56;;;25.43;100.00
7614;BME280;3848;42.016;23.098;2023-07-20T01:10:28;96700.44;;;25.44;100.00
7614;BME280;3848;42.016;23.098;2023-07-20T01:12:57;96695.75;;;25.25;100.00
7614;BME280;3848;42.016;23.098;2023-07-20T01:15:25;96704.50;;;25.24;100.00
7614;BME280;3848;42.016;23.098;2023-07-20T01:17:52;96697.81;;;25.09;100.00
7614;BME280;3848;42.016;23.098;2023-07-20T01:20:20;96707.19;;;24.99;100.00
7614;BME280;3848;42.016;23.098;2023-07-20T01:23:00;96709.78;;;24.99;100.00
7614;BME280;3848;42.016;23.098;2023-07-20T01:25:57;96707.41;;;24.96;100.00
7614;BME280;3848;42.016;23.098;2023-07-20T01:28:40;96671.25;;;24.69;
7614;BME280;3848;42.016;23.098;2023-07-20T01:31:21;96708.38;;;24.94;100.00
7614;BME280;3848;42.016;23.098;2023-07-20T01:33:53;96700.44;;;24.96;100.00
7614;BME280;3848;42.016;23.098;2023-07-20T01:36:22;96689.69;;;24.89;100.00
7614;BME280;3848;42.016;23.098;2023-07-20T01:38:51;96698.41;;;24.88;100.00
7614;BME280;3848;42.016;23.098;2023-07-20T01:41:18;96678.72;;;24.73;100.00
7614;BME280;3848;42.016;23.098;2023-07-20T01:43:46;96690.25;;;24.82;100.00
7614;BME280;3848;42.016;23.098;2023-07-20T01:46:13;96687.75;;;24.80;100.00
7614;BME280;3848;42.016;23.098;2023-07-20T01:48:41;96700.75;;;24.80;100.00
7614;BME280;3848;42.016;23.098;2023-07-20T01:51:07;96697.63;;;24.75;100.00
7614;BME280;3848;42.016;23.098;2023-07-20T01:53:34;96696.09;;;24.73;100.00
7614;BME280;3848;42.016;23.098;2023-07-20T01:56:01;96688.13;;;24.63;100.00
7614;BME280;3848;42.016;23.098;2023-07-20T01:58:28;96681.31;;;24.49;100.00
7614;BME280;3848;42.016;23.098;2023-07-20T02:00:54;96689.72;;;24.53;100.00
7614;BME280;3848;42.016;23.098;2023-07-20T02:03:21;96697.28;;;24.56;100.00
7614;BME280;3848;42.016;23.098;2023-07-20T02:05:50;96699.28;;;24.52;100.00
7614;BME280;3848;42.016;23.098;2023-07-20T02:08:17;96700.09;;;24.53;100.00
7614;BME280;3848;42.016;23.098;2023-07-20T02:10:45;96683.97;;;24.37;100.00
7614;BME280;3848;42.016;23.098;2023-07-20T02:13:12;96697.22;;;24.45;100.00
7614;BME280;3848;42.016;23.098;2023-07-20T02:15:41;96689.06;;;24.38;100.00
7614;BME280;3848;42.016;23.098;2023-07-20T02:18:08;96693.72;;;24.33;100.00
7614;BME280;3848;42.016;23.098;2023-07-20T02:20:35;96684.56;;;24.27;100.00
7614;BME280;3848;42.016;23.098;2023-07-20T02:23:03;96697.97;;;24.34;100.00
7614;BME280;3848;42.016;23.098;2023-07-20T02:25:30;96703.50;;;24.29;100.00
7614;BME280;3848;42.016;23.098;2023-07-20T02:27:57;96701.53;;;24.20;100.00
7614;BME280;3848;42.016;23.098;2023-07-20T02:30:24;96702.47;;;24.19;100.00
7614;BME280;3848;42.016;23.098;2023-07-20T02:32:52;96709.63;;;24.16;100.00
7614;BME280;3848;42.016;23.098;2023-07-20T02:35:19;96704.72;;;24.11;100.00
7614;BME280;3848;42.016;23.098;2023-07-20T02:37:46;96701.03;;;24.02;100.00
7614;BME280;3848;42.016;23.098;2023-07-20T02:40:14;96699.38;;;24.01;100.00
7614;BME280;3848;42.016;23.098;2023-07-20T02:42:41;96702.28;;;23.97;100.00
7614;BME280;3848;42.016;23.098;2023-07-20T02:45:08;96696.38;;;23.95;100.00
7614;BME280;3848;42.016;23.098;2023-07-20T02:47:35;96699.06;;;23.81;100.00
7614;BME280;3848;42.016;23.098;2023-07-20T02:50:03;96702.59;;;23.80;100.00
7614;BME280;3848;42.016;23.098;2023-07-20T02:52:30;96697.72;;;23.75;100.00
7614;BME280;3848;42.016;23.098;2023-07-20T02:54:56;96688.34;;;23.72;100.00
7614;BME280;3848;42.016;23.098;2023-07-20T02:57:24;96686.41;;;23.63;100.00
7614;BME280;3848;42.016;23.098;2023-07-20T02:59:52;96678.00;;;23.60;100.00
7614;BME280;3848;42.016;23.098;2023-07-20T03:02:19;96676.84;;;23.64;100.00
7614;BME280;3848;42.016;23.098;2023-07-20T03:04:46;96676.13;;;23.62;100.00
7614;BME280;3848;42.016;23.098;2023-07-20T03:07:12;96682.25;;;23.61;100.00
7614;BME280;3848;42.016;23.098;2023-07-20T03:09:39;96681.53;;;23.59;100.00
7614;BME280;3848;42.016;23.098;2023-07-20T03:12:07;96684.59;;;23.51;100.00
7614;BME280;3848;42.016;23.098;2023-07-20T03:14:36;96688.31;;;23.47;100.00
7614;BME280;3848;42.016;23.098;2023-07-20T03:17:02;96676.09;;;23.36;100.00
7614;BME280;3848;42.016;23.098;2023-07-20T03:19:30;96670.44;;;23.30;100.00
7614;BME280;3848;42.016;23.098;2023-07-20T03:21:56;96679.16;;;23.29;100.00
7614;BME280;3848;42.016;23.098;2023-07-20T03:24:23;96683.94;;;23.22;100.00
7614;BME280;3848;42.016;23.098;2023-07-20T03:26:50;96690.06;;;23.21;100.00
7614;BME280;3848;42.016;23.098;2023-07-20T03:29:17;96691.50;;;23.13;100.00
7614;BME280;3848;42.016;23.098;2023-07-20T03:31:45;96684.19;;;23.05;100.00
7614;BME280;3848;42.016;23.098;2023-07-20T03:34:11;96694.97;;;22.99;100.00
7614;BME280;3848;42.016;23.098;2023-07-20T03:36:38;96691.97;;;22.92;100.00
7614;BME280;3848;42.016;23.098;2023-07-20T03:39:05;96692.06;;;22.91;100.00
7614;BME280;3848;42.016;23.098;2023-07-20T03:41:32;96695.66;;;22.88;100.00
7614;BME280;3848;42.016;23.098;2023-07-20T03:43:59;96670.34;;;22.65;100.00
7614;BME280;3848;42.016;23.098;2023-07-20T03:46:25;96696.69;;;22.86;100.00
7614;BME280;3848;42.016;23.098;2023-07-20T03:48:54;96707.72;;;23.02;100.00
7614;BME280;3848;42.016;23.098;2023-07-20T03:51:21;96705.56;;;23.08;100.00
7614;BME280;3848;42.016;23.098;2023-07-20T03:53:47;96701.88;;;23.13;100.00
7614;BME280;3848;42.016;23.098;2023-07-20T03:56:14;96718.56;;;23.21;100.00
7614;BME280;3848;42.016;23.098;2023-07-20T03:58:41;96709.25;;;23.19;100.00
7614;BME280;3848;42.016;23.098;2023-07-20T04:01:08;96707.38;;;23.21;100.00
7614;BME280;3848;42.016;23.098;2023-07-20T04:03:35;96723.34;;;23.15;100.00
7614;BME280;3848;42.016;23.098;2023-07-20T04:06:03;96724.16;;;23.15;100.00
7614;BME280;3848;42.016;23.098;2023-07-20T04:08:29;96727.69;;;23.14;100.00
7614;BME280;3848;42.016;23.098;2023-07-20T04:10:56;96723.97;;;23.18;100.00
7614;BME280;3848;42.016;23.098;2023-07-20T04:13:23;96722.53;;;23.27;100.00
7614;BME280;3848;42.016;23.098;2023-07-20T04:15:50;96714.44;;;23.31;100.00
7614;BME280;3848;42.016;23.098;2023-07-20T04:18:16;96689.31;;;23.19;100.00
7614;BME280;3848;42.016;23.098;2023-07-20T04:20:43;96711.88;;;23.44;100.00
7614;BME280;3848;42.016;23.098;2023-07-20T04:23:11;96702.22;;;23.46;100.00
7614;BME280;3848;42.016;23.098;2023-07-20T04:25:39;96698.47;;;23.50;100.00
7614;BME280;3848;42.016;23.098;2023-07-20T04:28:06;96696.44;;;23.55;100.00
7614;BME280;3848;42.016;23.098;2023-07-20T04:30:35;96713.00;;;23.53;100.00
7614;BME280;3848;42.016;23.098;2023-07-20T04:33:02;96709.59;;;23.52;100.00
7614;BME280;3848;42.016;23.098;2023-07-20T04:35:49;96710.53;;;23.51;100.00
7614;BME280;3848;42.016;23.098;2023-07-20T04:38:18;96707.72;;;23.41;100.00
7614;BME280;3848;42.016;23.098;2023-07-20T04:40:45;96699.91;;;23.29;100.00
7614;BME280;3848;42.016;23.098;2023-07-20T04:43:11;96714.44;;;23.31;100.00
7614;BME280;3848;42.016;23.098;2023-07-20T04:45:38;96712.47;;;23.22;100.00
7614;BME280;3848;42.016;23.098;2023-07-20T04:48:09;96696.84;;;23.09;100.00
7614;BME280;3848;42.016;23.098;2023-07-20T04:50:36;96711.72;;;23.20;100.00
7614;BME280;3848;42.016;23.098;2023-07-20T04:53:03;96673.31;;;23.00;100.00
7614;BME280;3848;42.016;23.098;2023-07-20T04:55:31;96706.75;;;23.17;100.00
7614;BME280;3848;42.016;23.098;2023-07-20T04:58:00;96721.47;;;23.29;100.00
7614;BME280;3848;42.016;23.098;2023-07-20T05:00:27;96717.97;;;23.30;100.00
7614;BME280;3848;42.016;23.098;2023-07-20T05:02:53;96711.13;;;23.29;100.00
7614;BME280;3848;42.016;23.098;2023-07-20T05:05:20;96708.41;;;23.31;100.00
7614;BME280;3848;42.016;23.098;2023-07-20T05:07:47;96705.09;;;23.29;100.00
7614;BME280;3848;42.016;23.098;2023-07-20T05:10:14;96705.81;;;23.31;100.00
7614;BME280;3848;42.016;23.098;2023-07-20T05:12:42;96709.91;;;23.35;100.00
7614;BME280;3848;42.016;23.098;2023-07-20T05:15:16;96712.09;;;23.41;100.00
7614;BME280;3848;42.016;23.098;2023-07-20T05:17:43;96709.50;;;23.54;100.00
7614;BME280;3848;42.016;23.098;2023-07-20T05:20:10;96718.97;;;23.55;100.00
7614;BME280;3848;42.016;23.098;2023-07-20T05:22:38;96717.00;;;23.58;100.00
7614;BME280;3848;42.016;23.098;2023-07-20T05:25:07;96710.78;;;23.61;100.00
7614;BME280;3848;42.016;23.098;2023-07-20T05:27:34;96702.06;;;23.62;100.00
7614;BME280;3848;42.016;23.098;2023-07-20T05:30:04;96686.69;;;23.71;100.00
7614;BME280;3848;42.016;23.098;2023-07-20T05:32:32;96699.78;;;23.83;100.00
7614;BME280;3848;42.016;23.098;2023-07-20T05:34:59;96693.78;;;23.82;100.00
7614;BME280;3848;42.016;23.098;2023-07-20T05:37:26;96691.91;;;23.97;100.00
7614;BME280;3848;42.016;23.098;2023-07-20T05:39:53;96694.97;;;24.15;100.00
7614;BME280;3848;42.016;23.098;2023-07-20T05:42:19;96697.53;;;24.27;100.00
7614;BME280;3848;42.016;23.098;2023-07-20T05:44:46;96690.06;;;24.36;100.00
7614;BME280;3848;42.016;23.098;2023-07-20T05:47:16;96694.63;;;24.45;100.00
7614;BME280;3848;42.016;23.098;2023-07-20T05:49:43;96699.69;;;24.59;100.00
7614;BME280;3848;42.016;23.098;2023-07-20T05:52:10;96684.09;;;24.59;100.00
7614;BME280;3848;42.016;23.098;2023-07-20T05:54:36;96686.75;;;24.70;100.00
7614;BME280;3848;42.016;23.098;2023-07-20T05:57:04;96690.84;;;24.85;100.00
7614;BME280;3848;42.016;23.098;2023-07-20T05:59:31;96691.81;;;24.96;100.00
7614;BME280;3848;42.016;23.098;2023-07-20T06:01:58;96680.81;;;25.05;100.00
7614;BME280;3848;42.016;23.098;2023-07-20T06:04:26;96668.06;;;25.13;100.00
7614;BME280;3848;42.016;23.098;2023-07-20T06:06:53;96686.06;;;25.27;100.00
7614;BME280;3848;42.016;23.098;2023-07-20T06:09:20;96691.41;;;25.37;100.00
7614;BME280;3848;42.016;23.098;2023-07-20T06:11:55;96686.31;;;25.35;100.00
7614;BME280;3848;42.016;23.098;2023-07-20T06:14:22;96645.81;;;25.09;100.00
7614;BME280;3848;42.016;23.098;2023-07-20T06:17:05;96673.19;;;25.37;100.00
7614;BME280;3848;42.016;23.098;2023-07-20T06:19:33;96687.91;;;25.60;100.00
7614;BME280;3848;42.016;23.098;2023-07-20T06:21:59;96678.16;;;25.75;100.00
7614;BME280;3848;42.016;23.098;2023-07-20T06:24:26;96688.09;;;25.92;100.00
7614;BME280;3848;42.016;23.098;2023-07-20T06:26:53;96675.94;;;26.04;100.00
7614;BME280;3848;42.016;23.098;2023-07-20T06:29:20;96661.34;;;26.12;100.00
7614;BME280;3848;42.016;23.098;2023-07-20T06:31:47;96628.31;;;26.02;100.00
7614;BME280;3848;42.016;23.098;2023-07-20T06:34:14;96667.13;;;26.38;100.00
7614;BME280;3848;42.016;23.098;2023-07-20T06:36:42;96642.63;;;26.41;100.00
7614;BME280;3848;42.016;23.098;2023-07-20T06:39:09;96665.56;;;26.58;97.74
7614;BME280;3848;42.016;23.098;2023-07-20T06:41:36;96652.53;;;26.58;100.00
7614;BME280;3848;42.016;23.098;2023-07-20T06:44:03;96659.63;;;26.67;100.00
7614;BME280;3848;42.016;23.098;2023-07-20T06:46:30;96658.38;;;26.83;100.00
7614;BME280;3848;42.016;23.098;2023-07-20T06:48:57;96650.88;;;27.00;97.30
7614;BME280;3848;42.016;23.098;2023-07-20T06:51:24;96622.50;;;27.07;96.41
7614;BME280;3848;42.016;23.098;2023-07-20T06:53:52;96643.19;;;27.41;91.95
7614;BME280;3848;42.016;23.098;2023-07-20T06:56:19;96637.50;;;27.56;92.07
7614;BME280;3848;42.016;23.098;2023-07-20T06:58:45;96634.19;;;27.75;91.06
7614;BME280;3848;42.016;23.098;2023-07-20T07:01:29;96624.66;;;27.95;87.27
7614;BME280;3848;42.016;23.098;2023-07-20T07:03:55;96629.50;;;28.09;85.79
7614;BME280;3848;42.016;23.098;2023-07-20T07:06:22;96643.38;;;28.10;79.23
7614;BME280;3848;42.016;23.098;2023-07-20T07:08:49;96648.59;;;28.10;81.57
7614;BME280;3848;42.016;23.098;2023-07-20T07:11:17;96652.19;;;28.09;79.29
7614;BME280;3848;42.016;23.098;2023-07-20T07:13:44;96629.63;;;28.08;80.00
7614;BME280;3848;42.016;23.098;2023-07-20T07:16:12;96649.97;;;28.44;83.49
7614;BME280;3848;42.016;23.098;2023-07-20T07:18:40;96665.16;;;28.70;77.37
7614;BME280;3848;42.016;23.098;2023-07-20T07:21:06;96654.06;;;28.87;74.87
7614;BME280;3848;42.016;23.098;2023-07-20T07:23:33;96662.47;;;29.00;74.02
7614;BME280;3848;42.016;23.098;2023-07-20T07:26:00;96667.97;;;29.07;72.72
7614;BME280;3848;42.016;23.098;2023-07-20T07:28:28;96662.88;;;29.05;70.22
7614;BME280;3848;42.016;23.098;2023-07-20T07:30:55;96671.25;;;29.09;71.49
7614;BME280;3848;42.016;23.098;2023-07-20T07:33:22;96670.59;;;29.17;74.99
7614;BME280;3848;42.016;23.098;2023-07-20T07:35:49;96663.78;;;29.33;75.93
7614;BME280;3848;42.016;23.098;2023-07-20T07:38:16;96661.19;;;29.53;69.79
7614;BME280;3848;42.016;23.098;2023-07-20T07:40:43;96659.78;;;29.68;72.41
7614;BME280;3848;42.016;23.098;2023-07-20T07:43:10;96659.47;;;29.81;72.29
7614;BME280;3848;42.016;23.098;2023-07-20T07:45:38;96663.53;;;29.93;64.21
7614;BME280;3848;42.016;23.098;2023-07-20T07:48:06;96663.09;;;29.97;64.61
7614;BME280;3848;42.016;23.098;2023-07-20T07:50:33;96663.66;;;30.01;63.41
7614;BME280;3848;42.016;23.098;2023-07-20T07:53:00;96642.97;;;29.98;66.24
7614;BME280;3848;42.016;23.098;2023-07-20T07:55:27;96650.09;;;30.15;66.84
7614;BME280;3848;42.016;23.098;2023-07-20T07:57:53;96652.22;;;30.29;63.50
7614;BME280;3848;42.016;23.098;2023-07-20T08:00:21;96654.41;;;30.34;61.21
7614;BME280;3848;42.016;23.098;2023-07-20T08:02:50;96652.84;;;30.23;62.01
7614;BME280;3848;42.016;23.098;2023-07-20T08:05:17;96647.00;;;30.29;65.50
7614;BME280;3848;42.016;23.098;2023-07-20T08:07:43;96650.25;;;30.41;65.73
7614;BME280;3848;42.016;23.098;2023-07-20T08:10:10;96629.38;;;30.40;61.68
7614;BME280;3848;42.016;23.098;2023-07-20T08:12:37;96642.81;;;30.64;61.67
7614;BME280;3848;42.016;23.098;2023-07-20T08:15:05;96633.44;;;30.79;64.62
7614;BME280;3848;42.016;23.098;2023-07-20T08:17:32;96613.81;;;30.83;62.20
7614;BME280;3848;42.016;23.098;2023-07-20T08:20:00;96625.25;;;31.00;62.25
7614;BME280;3848;42.016;23.098;2023-07-20T08:22:27;96628.72;;;31.18;60.06
7614;BME280;3848;42.016;23.098;2023-07-20T08:24:53;96611.44;;;31.34;61.07
7614;BME280;3848;42.016;23.098;2023-07-20T08:27:20;96601.84;;;31.50;56.52
7614;BME280;3848;42.016;23.098;2023-07-20T08:29:47;96590.88;;;31.55;56.88
7614;BME280;3848;42.016;23.098;2023-07-20T08:32:16;96591.06;;;31.62;58.64
7614;BME280;3848;42.016;23.098;2023-07-20T08:34:43;96617.19;;;31.89;60.08
7614;BME280;3848;42.016;23.098;2023-07-20T08:37:11;96620.25;;;32.10;58.52
7614;BME280;3848;42.016;23.098;2023-07-20T08:39:37;96619.03;;;32.31;54.58
7614;BME280;3848;42.016;23.098;2023-07-20T08:42:05;96607.59;;;32.22;53.79
7614;BME280;3848;42.016;23.098;2023-07-20T08:44:32;96607.84;;;32.45;55.95
7614;BME280;3848;42.016;23.098;2023-07-20T08:47:01;96573.19;;;32.66;55.19
7614;BME280;3848;42.016;23.098;2023-07-20T08:49:29;96580.16;;;32.99;52.37
7614;BME280;3848;42.016;23.098;2023-07-20T08:51:56;96578.84;;;33.12;51.02
7614;BME280;3848;42.016;23.098;2023-07-20T08:54:28;96590.97;;;33.29;50.81
7614;BME280;3848;42.016;23.098;2023-07-20T08:57:01;96590.16;;;33.53;51.29
7614;BME280;3848;42.016;23.098;2023-07-20T08:59:29;96592.09;;;33.51;49.05
7614;BME280;3848;42.016;23.098;2023-07-20T09:01:57;96585.16;;;33.66;51.35
7614;BME280;3848;42.016;23.098;2023-07-20T09:04:24;96575.56;;;33.81;50.46
7614;BME280;3848;42.016;23.098;2023-07-20T09:06:51;96588.97;;;34.11;47.66
7614;BME280;3848;42.016;23.098;2023-07-20T09:09:18;96587.28;;;34.18;47.79
7614;BME280;3848;42.016;23.098;2023-07-20T09:11:47;96575.69;;;34.27;49.38
7614;BME280;3848;42.016;23.098;2023-07-20T09:14:15;96578.38;;;34.50;47.70
7614;BME280;3848;42.016;23.098;2023-07-20T09:16:47;96568.72;;;34.65;46.49
7614;BME280;3848;42.016;23.098;2023-07-20T09:19:16;96555.44;;;34.73;47.71
7614;BME280;3848;42.016;23.098;2023-07-20T09:21:44;96567.00;;;34.95;45.48
7614;BME280;3848;42.016;23.098;2023-07-20T09:24:12;96554.28;;;34.99;44.91
7614;BME280;3848;42.016;23.098;2023-07-20T09:26:41;96551.09;;;35.03;45.35
7614;BME280;3848;42.016;23.098;2023-07-20T09:29:10;96537.72;;;35.20;45.95
7614;BME280;3848;42.016;23.098;2023-07-20T09:31:37;96545.44;;;35.44;44.28
7614;BME280;3848;42.016;23.098;2023-07-20T09:34:22;96545.84;;;35.77;43.39
7614;BME280;3848;42.016;23.098;2023-07-20T09:36:49;96546.06;;;35.90;43.87
7614;BME280;3848;42.016;23.098;2023-07-20T09:39:17;96531.03;;;36.12;43.49
7614;BME280;3848;42.016;23.098;2023-07-20T09:41:44;96539.03;;;36.33;42.60
7614;BME280;3848;42.016;23.098;2023-07-20T09:44:14;96528.13;;;36.43;41.70
7614;BME280;3848;42.016;23.098;2023-07-20T09:46:45;96526.97;;;36.46;41.77
7614;BME280;3848;42.016;23.098;2023-07-20T09:49:12;96520.38;;;36.63;42.30
7614;BME280;3848;42.016;23.098;2023-07-20T09:51:40;96504.34;;;36.92;44.04
7614;BME280;3848;42.016;23.098;2023-07-20T09:54:07;96499.78;;;37.08;40.80
7614;BME280;3848;42.016;23.098;2023-07-20T09:56:35;96483.06;;;37.07;40.20
7614;BME280;3848;42.016;23.098;2023-07-20T09:59:01;96500.81;;;37.41;42.13
7614;BME280;3848;42.016;23.098;2023-07-20T10:01:30;96506.88;;;37.70;40.16
7614;BME280;3848;42.016;23.098;2023-07-20T10:04:00;96500.84;;;37.89;39.87
7614;BME280;3848;42.016;23.098;2023-07-20T10:06:32;96494.91;;;37.87;38.23
7614;BME280;3848;42.016;23.098;2023-07-20T10:09:01;96501.72;;;38.09;38.07
7614;BME280;3848;42.016;23.098;2023-07-20T10:11:30;96490.56;;;38.27;37.69
7614;BME280;3848;42.016;23.098;2023-07-20T10:13:59;96499.38;;;38.41;39.53
7614;BME280;3848;42.016;23.098;2023-07-20T10:16:31;96499.38;;;38.34;38.28
7614;BME280;3848;42.016;23.098;2023-07-20T10:19:03;96500.16;;;38.22;38.27
7614;BME280;3848;42.016;23.098;2023-07-20T10:21:33;96494.63;;;38.23;40.74
7614;BME280;3848;42.016;23.098;2023-07-20T10:24:00;96495.66;;;38.22;38.57
7614;BME280;3848;42.016;23.098;2023-07-20T10:26:28;96488.09;;;38.19;39.50
7614;BME280;3848;42.016;23.098;2023-07-20T10:28:55;96484.38;;;38.13;39.92
7614;BME280;3848;42.016;23.098;2023-07-20T10:31:24;96475.59;;;38.13;40.60
7614;BME280;3848;42.016;23.098;2023-07-20T10:33:53;96473.78;;;38.13;39.95
7614;BME280;3848;42.016;23.098;2023-07-20T10:36:25;96472.13;;;38.12;37.85
7614;BME280;3848;42.016;23.098;2023-07-20T10:38:53;96460.25;;;37.95;38.92
7614;BME280;3848;42.016;23.098;2023-07-20T10:41:21;96470.72;;;38.17;37.81
7614;BME280;3848;42.016;23.098;2023-07-20T10:43:50;96470.53;;;38.31;40.36
7614;BME280;3848;42.016;23.098;2023-07-20T10:46:41;96460.34;;;38.41;39.04
7614;BME280;3848;42.016;23.098;2023-07-20T10:49:10;96451.34;;;38.42;36.79
7614;BME280;3848;42.016;23.098;2023-07-20T10:51:42;96467.13;;;38.64;38.37
7614;BME280;3848;42.016;23.098;2023-07-20T10:54:32;96457.53;;;38.63;36.99
7614;BME280;3848;42.016;23.098;2023-07-20T10:57:22;96466.47;;;38.62;38.57
7614;BME280;3848;42.016;23.098;2023-07-20T10:59:49;96461.38;;;38.47;39.01
7614;BME280;3848;42.016;23.098;2023-07-20T11:02:18;96454.63;;;38.38;38.56
7614;BME280;3848;42.016;23.098;2023-07-20T11:04:47;96468.94;;;38.43;37.57
7614;BME280;3848;42.016;23.098;2023-07-20T11:07:17;96449.91;;;38.47;36.21
7614;BME280;3848;42.016;23.098;2023-07-20T11:10:13;96466.72;;;38.67;37.67
7614;BME280;3848;42.016;23.098;2023-07-20T11:12:40;96464.88;;;38.74;36.65
7614;BME280;3848;42.016;23.098;2023-07-20T11:15:07;96445.47;;;38.73;36.57
7614;BME280;3848;42.016;23.098;2023-07-20T11:17:34;96460.16;;;38.96;36.07
7614;BME280;3848;42.016;23.098;2023-07-20T11:20:05;96449.31;;;38.97;35.84
7614;BME280;3848;42.016;23.098;2023-07-20T11:22:33;96446.88;;;38.83;37.86
7614;BME280;3848;42.016;23.098;2023-07-20T11:25:00;96444.81;;;38.85;37.78
7614;BME280;3848;42.016;23.098;2023-07-20T11:27:28;96396.63;;;38.55;38.08
7614;BME280;3848;42.016;23.098;2023-07-20T11:29:56;96440.53;;;38.84;37.85
7614;BME280;3848;42.016;23.098;2023-07-20T11:32:23;96447.25;;;38.93;37.16
7614;BME280;3848;42.016;23.098;2023-07-20T11:34:50;96423.53;;;39.04;36.23
7614;BME280;3848;42.016;23.098;2023-07-20T11:37:18;96427.00;;;39.05;37.33
7614;BME280;3848;42.016;23.098;2023-07-20T11:39:45;96420.41;;;39.27;37.38
7614;BME280;3848;42.016;23.098;2023-07-20T11:42:13;96426.84;;;39.65;36.50
7614;BME280;3848;42.016;23.098;2023-07-20T11:44:41;96421.16;;;39.99;37.75
7614;BME280;3848;42.016;23.098;2023-07-20T11:47:09;96418.16;;;40.20;35.78
7614;BME280;3848;42.016;23.098;2023-07-20T11:49:36;96417.59;;;40.43;36.56
7614;BME280;3848;42.016;23.098;2023-07-20T11:52:04;96401.44;;;40.81;35.11
7614;BME280;3848;42.016;23.098;2023-07-20T11:54:33;96400.44;;;41.19;35.09
7614;BME280;3848;42.016;23.098;2023-07-20T11:57:01;96389.09;;;41.42;34.82
7614;BME280;3848;42.016;23.098;2023-07-20T11:59:27;96385.94;;;41.63;33.72
7614;BME280;3848;42.016;23.098;2023-07-20T12:01:54;96395.00;;;41.92;33.70
7614;BME280;3848;42.016;23.098;2023-07-20T12:04:22;96391.31;;;41.93;33.58
7614;BME280;3848;42.016;23.098;2023-07-20T12:06:49;96387.09;;;42.16;33.52
7614;BME280;3848;42.016;23.098;2023-07-20T12:09:17;96383.75;;;42.44;33.25
7614;BME280;3848;42.016;23.098;2023-07-20T12:11:45;96376.47;;;42.51;33.50
7614;BME280;3848;42.016;23.098;2023-07-20T12:14:12;96370.28;;;42.62;33.14
7614;BME280;3848;42.016;23.098;2023-07-20T12:16:38;96379.22;;;42.79;32.75
7614;BME280;3848;42.016;23.098;2023-07-20T12:19:06;96367.81;;;42.84;32.88
7614;BME280;3848;42.016;23.098;2023-07-20T12:21:34;96371.56;;;42.95;32.18
7614;BME280;3848;42.016;23.098;2023-07-20T12:24:02;96358.53;;;42.98;31.65
7614;BME280;3848;42.016;23.098;2023-07-20T12:26:30;96342.66;;;43.20;32.49
7614;BME280;3848;42.016;23.098;2023-07-20T12:28:58;96320.44;;;43.19;32.00
7614;BME280;3848;42.016;23.098;2023-07-20T12:31:26;96348.19;;;43.42;31.73
7614;BME280;3848;42.016;23.098;2023-07-20T12:33:53;96321.66;;;43.40;32.99
7614;BME280;3848;42.016;23.098;2023-07-20T12:36:21;96329.25;;;43.60;31.41
7614;BME280;3848;42.016;23.098;2023-07-20T12:38:48;96337.53;;;43.59;31.40
7614;BME280;3848;42.016;23.098;2023-07-20T12:41:15;96332.38;;;43.69;30.50
7614;BME280;3848;42.016;23.098;2023-07-20T12:43:43;96330.25;;;43.71;29.86
7614;BME280;3848;42.016;23.098;2023-07-20T12:46:12;96337.66;;;43.52;31.64
7614;BME280;3848;42.016;23.098;2023-07-20T12:48:40;96321.34;;;43.37;30.07
7614;BME280;3848;42.016;23.098;2023-07-20T12:51:08;96334.97;;;43.35;31.14
7614;BME280;3848;42.016;23.098;2023-07-20T12:53:35;96337.53;;;43.59;30.35
7614;BME280;3848;42.016;23.098;2023-07-20T12:56:02;96317.69;;;43.71;29.12
7614;BME280;3848;42.016;23.098;2023-07-20T12:58:29;96290.09;;;43.71;29.05
7614;BME280;3848;42.016;23.098;2023-07-20T13:00:57;96283.38;;;43.85;30.19
7614;BME280;3848;42.016;23.098;2023-07-20T13:03:26;96308.16;;;44.26;30.50
7614;BME280;3848;42.016;23.098;2023-07-20T13:05:52;96320.72;;;44.25;30.96
7614;BME280;3848;42.016;23.098;2023-07-20T13:08:19;96315.75;;;43.84;29.15
7614;BME280;3848;42.016;23.098;2023-07-20T13:10:50;96312.34;;;43.88;28.72
7614;BME280;3848;42.016;23.098;2023-07-20T13:13:17;96291.09;;;43.98;29.48